Startpagina
METAR-TAF:

METAR-TAF

Vliegvelden :

Luchthaven Kotoka Internationaal

Accra, Ghana

breedte: 05-36N, lengte: 000-10W, hoogte: 68 m

Actueel weer

Dit bericht is 55 minuten geleden gemaakt, om 11:00 UTC
Wind 4 kt uit het westen, variërend tussen het zuiden en het noordnoordwesten
Temperatuur 31°C
Vochtigheid 66%
Druk 1010 hPa
Zicht 10 km of meer
Weinig wolken op 2800 ft

METAR: DGAA 171100Z 26004KT 190V330 9999 FEW028 31/24 Q1010 NOSIG

Tijdstip: 11:55 (11:55 UTC)

Verwachting

Dit bericht is 55 minuten geleden gemaakt, om 11:00 UTC
Verwachting geldig van 17 om 12 UTC tot 18 om 18 UTC
Wind 10 kt uit het zuidzuidwesten
Zicht 10 km of meer
Verspreide wolken op 2500 ft
Kans 30% :
Tijdelijke
van 17 om 15 UTC tot 17 om 19 UTC
Weinig wolken op 2500 ft, Cumulonimbus.
onweer
Wijzigt naar
van 17 om 23 UTC tot 18 om 01 UTC
Wind 5 kt uit het westen

TAF: DGAA 171100Z 1712/1818 20010KT 9999 SCT025 PROB30 TEMPO 1715/1719 TS FEW025CB BECMG 1723/1801 26005KT

Waarnemingen en weersverwachtingen van meer dan 4000 vliegvelden (METAR en TAF).

De beschikbare stations zijn de gele en rode punten op de kaart.

Ga met uw muis naar het station om de naam te zien.

Klik dan om waarnemingen en weersverwachtingen te zien.

kaart wijzigen: klik op de groene knoppen met een zwart kruis om in te zoomen, op de groene knop met een streepje om uit te zoomen of op de groene pijlen voor aangrenzende kaarten.


METAR-TAF: